sensor_id;sensor_type;location;lat;lon;timestamp;temperature;humidity
59128;DHT22;44912;52.754;5.994;2023-09-30T00:00:56;12.00;99.90
59128;DHT22;44912;52.754;5.994;2023-09-30T00:03:22;12.20;99.90
59128;DHT22;44912;52.754;5.994;2023-09-30T00:05:47;12.20;99.90
59128;DHT22;44912;52.754;5.994;2023-09-30T00:08:13;12.10;99.90
59128;DHT22;44912;52.754;5.994;2023-09-30T00:10:38;12.00;99.90
59128;DHT22;44912;52.754;5.994;2023-09-30T00:13:04;12.00;99.90
59128;DHT22;44912;52.754;5.994;2023-09-30T00:15:32;11.90;99.90
59128;DHT22;44912;52.754;5.994;2023-09-30T00:17:57;12.10;99.90
59128;DHT22;44912;52.754;5.994;2023-09-30T00:20:23;12.10;99.90
59128;DHT22;44912;52.754;5.994;2023-09-30T00:22:49;12.10;99.90
59128;DHT22;44912;52.754;5.994;2023-09-30T00:25:14;12.20;99.90
59128;DHT22;44912;52.754;5.994;2023-09-30T00:27:40;12.30;99.90
59128;DHT22;44912;52.754;5.994;2023-09-30T00:30:06;12.40;99.90
59128;DHT22;44912;52.754;5.994;2023-09-30T00:32:32;12.40;99.90
59128;DHT22;44912;52.754;5.994;2023-09-30T00:35:00;12.30;99.90
59128;DHT22;44912;52.754;5.994;2023-09-30T00:37:26;12.20;99.90
59128;DHT22;44912;52.754;5.994;2023-09-30T00:39:53;12.20;99.90
59128;DHT22;44912;52.754;5.994;2023-09-30T00:42:18;12.10;99.90
59128;DHT22;44912;52.754;5.994;2023-09-30T00:44:46;12.00;99.90
59128;DHT22;44912;52.754;5.994;2023-09-30T00:47:12;12.00;99.90
59128;DHT22;44912;52.754;5.994;2023-09-30T00:49:40;12.10;99.90
59128;DHT22;44912;52.754;5.994;2023-09-30T00:52:07;12.10;99.90
59128;DHT22;44912;52.754;5.994;2023-09-30T00:54:33;12.00;99.90
59128;DHT22;44912;52.754;5.994;2023-09-30T00:56:59;12.00;99.90
59128;DHT22;44912;52.754;5.994;2023-09-30T00:59:26;12.20;99.90
59128;DHT22;44912;52.754;5.994;2023-09-30T01:01:52;12.20;99.90
59128;DHT22;44912;52.754;5.994;2023-09-30T01:04:19;12.20;99.90
59128;DHT22;44912;52.754;5.994;2023-09-30T01:06:46;12.20;99.90
59128;DHT22;44912;52.754;5.994;2023-09-30T01:09:13;12.10;99.90
59128;DHT22;44912;52.754;5.994;2023-09-30T01:11:39;12.20;99.90
59128;DHT22;44912;52.754;5.994;2023-09-30T01:14:26;12.30;99.90
59128;DHT22;44912;52.754;5.994;2023-09-30T01:16:53;12.20;99.90
59128;DHT22;44912;52.754;5.994;2023-09-30T01:19:18;12.20;99.90
59128;DHT22;44912;52.754;5.994;2023-09-30T01:21:44;12.20;99.90
59128;DHT22;44912;52.754;5.994;2023-09-30T01:24:15;12.20;99.90
59128;DHT22;44912;52.754;5.994;2023-09-30T01:26:41;12.30;99.90
59128;DHT22;44912;52.754;5.994;2023-09-30T01:29:09;12.20;99.90
59128;DHT22;44912;52.754;5.994;2023-09-30T01:31:39;12.20;99.90
59128;DHT22;44912;52.754;5.994;2023-09-30T01:34:05;12.30;99.90
59128;DHT22;44912;52.754;5.994;2023-09-30T01:36:31;12.30;99.90
59128;DHT22;44912;52.754;5.994;2023-09-30T01:38:56;12.40;99.90
59128;DHT22;44912;52.754;5.994;2023-09-30T01:41:22;12.30;99.90
59128;DHT22;44912;52.754;5.994;2023-09-30T01:43:48;12.30;99.90
59128;DHT22;44912;52.754;5.994;2023-09-30T01:46:14;12.40;99.90
59128;DHT22;44912;52.754;5.994;2023-09-30T01:48:39;12.40;99.90
59128;DHT22;44912;52.754;5.994;2023-09-30T01:51:05;12.30;99.90
59128;DHT22;44912;52.754;5.994;2023-09-30T01:53:32;12.20;99.90
59128;DHT22;44912;52.754;5.994;2023-09-30T01:55:57;12.20;99.90
59128;DHT22;44912;52.754;5.994;2023-09-30T01:58:23;12.30;99.90
59128;DHT22;44912;52.754;5.994;2023-09-30T02:00:50;12.30;99.90
59128;DHT22;44912;52.754;5.994;2023-09-30T02:03:16;12.40;99.90
59128;DHT22;44912;52.754;5.994;2023-09-30T02:05:42;12.30;99.90
59128;DHT22;44912;52.754;5.994;2023-09-30T02:08:08;12.30;99.90
59128;DHT22;44912;52.754;5.994;2023-09-30T02:10:34;12.30;99.90
59128;DHT22;44912;52.754;5.994;2023-09-30T02:12:59;12.20;99.90
59128;DHT22;44912;52.754;5.994;2023-09-30T02:15:25;12.20;99.90
59128;DHT22;44912;52.754;5.994;2023-09-30T02:17:51;12.20;99.90
59128;DHT22;44912;52.754;5.994;2023-09-30T02:20:17;12.10;99.90
59128;DHT22;44912;52.754;5.994;2023-09-30T02:22:47;12.20;99.90
59128;DHT22;44912;52.754;5.994;2023-09-30T02:25:14;12.10;99.90
59128;DHT22;44912;52.754;5.994;2023-09-30T02:27:41;12.20;99.90
59128;DHT22;44912;52.754;5.994;2023-09-30T02:30:08;12.10;99.90
59128;DHT22;44912;52.754;5.994;2023-09-30T02:32:34;12.20;99.90
59128;DHT22;44912;52.754;5.994;2023-09-30T02:34:59;12.10;99.90
59128;DHT22;44912;52.754;5.994;2023-09-30T02:37:25;12.30;99.90
59128;DHT22;44912;52.754;5.994;2023-09-30T02:39:51;12.10;99.90
59128;DHT22;44912;52.754;5.994;2023-09-30T02:42:16;12.20;99.90
59128;DHT22;44912;52.754;5.994;2023-09-30T02:44:42;12.20;99.90
59128;DHT22;44912;52.754;5.994;2023-09-30T02:47:07;12.20;99.90
59128;DHT22;44912;52.754;5.994;2023-09-30T02:49:34;12.20;99.90
59128;DHT22;44912;52.754;5.994;2023-09-30T02:52:00;12.20;99.90
59128;DHT22;44912;52.754;5.994;2023-09-30T02:54:26;12.10;99.90
59128;DHT22;44912;52.754;5.994;2023-09-30T02:56:52;12.10;99.90
59128;DHT22;44912;52.754;5.994;2023-09-30T02:59:18;12.00;99.90
59128;DHT22;44912;52.754;5.994;2023-09-30T03:01:44;12.00;99.90
59128;DHT22;44912;52.754;5.994;2023-09-30T03:04:10;12.00;99.90
59128;DHT22;44912;52.754;5.994;2023-09-30T03:06:38;12.10;99.90
59128;DHT22;44912;52.754;5.994;2023-09-30T03:09:04;12.10;99.90
59128;DHT22;44912;52.754;5.994;2023-09-30T03:11:30;12.00;99.90
59128;DHT22;44912;52.754;5.994;2023-09-30T03:13:57;12.10;99.90
59128;DHT22;44912;52.754;5.994;2023-09-30T03:16:23;12.10;99.90
59128;DHT22;44912;52.754;5.994;2023-09-30T03:18:50;12.10;99.90
59128;DHT22;44912;52.754;5.994;2023-09-30T03:21:16;12.00;99.90
59128;DHT22;44912;52.754;5.994;2023-09-30T03:23:42;12.00;99.90
59128;DHT22;44912;52.754;5.994;2023-09-30T03:26:08;12.00;99.90
59128;DHT22;44912;52.754;5.994;2023-09-30T03:28:36;12.00;99.90
59128;DHT22;44912;52.754;5.994;2023-09-30T03:31:03;12.00;99.90
59128;DHT22;44912;52.754;5.994;2023-09-30T03:33:31;11.90;99.90
59128;DHT22;44912;52.754;5.994;2023-09-30T03:35:57;11.90;99.90
59128;DHT22;44912;52.754;5.994;2023-09-30T03:38:24;11.70;99.90
59128;DHT22;44912;52.754;5.994;2023-09-30T03:40:49;11.70;99.90
59128;DHT22;44912;52.754;5.994;2023-09-30T03:43:16;11.70;99.90
59128;DHT22;44912;52.754;5.994;2023-09-30T03:45:41;11.60;99.90
59128;DHT22;44912;52.754;5.994;2023-09-30T03:48:07;11.60;99.90
59128;DHT22;44912;52.754;5.994;2023-09-30T03:50:33;11.60;99.90
59128;DHT22;44912;52.754;5.994;2023-09-30T03:53:03;11.70;99.90
59128;DHT22;44912;52.754;5.994;2023-09-30T03:55:30;11.70;99.90
59128;DHT22;44912;52.754;5.994;2023-09-30T03:57:57;11.70;99.90
59128;DHT22;44912;52.754;5.994;2023-09-30T04:00:23;11.70;99.90
59128;DHT22;44912;52.754;5.994;2023-09-30T04:02:50;11.60;99.90
59128;DHT22;44912;52.754;5.994;2023-09-30T04:05:19;11.40;99.90
59128;DHT22;44912;52.754;5.994;2023-09-30T04:07:44;11.40;99.90
59128;DHT22;44912;52.754;5.994;2023-09-30T04:10:10;11.40;99.90
59128;DHT22;44912;52.754;5.994;2023-09-30T04:12:36;11.50;99.90
59128;DHT22;44912;52.754;5.994;2023-09-30T04:15:02;11.50;99.90
59128;DHT22;44912;52.754;5.994;2023-09-30T04:17:29;11.70;99.90
59128;DHT22;44912;52.754;5.994;2023-09-30T04:19:54;11.60;99.90
59128;DHT22;44912;52.754;5.994;2023-09-30T04:22:20;11.60;99.90
59128;DHT22;44912;52.754;5.994;2023-09-30T04:24:46;11.50;99.90
59128;DHT22;44912;52.754;5.994;2023-09-30T04:27:14;11.60;99.90
59128;DHT22;44912;52.754;5.994;2023-09-30T04:29:39;11.60;99.90
59128;DHT22;44912;52.754;5.994;2023-09-30T04:32:07;11.60;99.90
59128;DHT22;44912;52.754;5.994;2023-09-30T04:34:32;11.70;99.90
59128;DHT22;44912;52.754;5.994;2023-09-30T04:36:58;11.70;99.90
59128;DHT22;44912;52.754;5.994;2023-09-30T04:39:25;11.60;99.90
59128;DHT22;44912;52.754;5.994;2023-09-30T04:41:50;11.50;99.90
59128;DHT22;44912;52.754;5.994;2023-09-30T04:44:16;11.40;99.90
59128;DHT22;44912;52.754;5.994;2023-09-30T04:46:41;11.40;99.90
59128;DHT22;44912;52.754;5.994;2023-09-30T04:49:12;11.40;99.90
59128;DHT22;44912;52.754;5.994;2023-09-30T04:51:38;11.40;99.90
59128;DHT22;44912;52.754;5.994;2023-09-30T04:54:05;11.50;99.90
59128;DHT22;44912;52.754;5.994;2023-09-30T04:56:34;11.60;99.90
59128;DHT22;44912;52.754;5.994;2023-09-30T04:59:00;11.70;99.90
59128;DHT22;44912;52.754;5.994;2023-09-30T05:01:26;11.50;99.90
59128;DHT22;44912;52.754;5.994;2023-09-30T05:03:52;11.50;99.90
59128;DHT22;44912;52.754;5.994;2023-09-30T05:06:17;11.60;99.90
59128;DHT22;44912;52.754;5.994;2023-09-30T05:08:43;11.50;99.90
59128;DHT22;44912;52.754;5.994;2023-09-30T05:11:08;11.60;99.90
59128;DHT22;44912;52.754;5.994;2023-09-30T05:13:34;11.50;99.90
59128;DHT22;44912;52.754;5.994;2023-09-30T05:15:59;11.50;99.90
59128;DHT22;44912;52.754;5.994;2023-09-30T05:18:25;11.50;99.90
59128;DHT22;44912;52.754;5.994;2023-09-30T05:20:50;11.50;99.90
59128;DHT22;44912;52.754;5.994;2023-09-30T05:23:16;11.40;99.90
59128;DHT22;44912;52.754;5.994;2023-09-30T05:25:43;11.30;99.90
59128;DHT22;44912;52.754;5.994;2023-09-30T05:28:08;11.10;99.90
59128;DHT22;44912;52.754;5.994;2023-09-30T05:30:35;11.00;99.90
59128;DHT22;44912;52.754;5.994;2023-09-30T05:33:01;10.90;99.90
59128;DHT22;44912;52.754;5.994;2023-09-30T05:35:26;10.90;99.90
59128;DHT22;44912;52.754;5.994;2023-09-30T05:37:53;10.90;99.90
59128;DHT22;44912;52.754;5.994;2023-09-30T05:40:20;11.00;99.90
59128;DHT22;44912;52.754;5.994;2023-09-30T05:42:53;11.00;99.90
59128;DHT22;44912;52.754;5.994;2023-09-30T05:45:19;11.00;99.90
59128;DHT22;44912;52.754;5.994;2023-09-30T05:47:45;11.00;99.90
59128;DHT22;44912;52.754;5.994;2023-09-30T05:50:11;11.00;99.90
59128;DHT22;44912;52.754;5.994;2023-09-30T05:52:42;11.10;99.90
59128;DHT22;44912;52.754;5.994;2023-09-30T05:55:08;11.10;99.90
59128;DHT22;44912;52.754;5.994;2023-09-30T05:57:34;11.10;99.90
59128;DHT22;44912;52.754;5.994;2023-09-30T06:00:01;11.20;99.90
59128;DHT22;44912;52.754;5.994;2023-09-30T06:02:26;11.20;99.90
59128;DHT22;44912;52.754;5.994;2023-09-30T06:04:52;11.10;99.90
59128;DHT22;44912;52.754;5.994;2023-09-30T06:07:19;11.20;99.90
59128;DHT22;44912;52.754;5.994;2023-09-30T06:09:46;11.20;99.90
59128;DHT22;44912;52.754;5.994;2023-09-30T06:12:13;11.20;99.90
59128;DHT22;44912;52.754;5.994;2023-09-30T06:14:39;11.20;99.90
59128;DHT22;44912;52.754;5.994;2023-09-30T06:17:07;11.30;99.90
59128;DHT22;44912;52.754;5.994;2023-09-30T06:19:32;11.50;99.90
59128;DHT22;44912;52.754;5.994;2023-09-30T06:21:59;11.60;99.90
59128;DHT22;44912;52.754;5.994;2023-09-30T06:24:24;11.60;99.90
59128;DHT22;44912;52.754;5.994;2023-09-30T06:26:50;11.70;99.90
59128;DHT22;44912;52.754;5.994;2023-09-30T06:29:16;11.80;99.90
59128;DHT22;44912;52.754;5.994;2023-09-30T06:31:42;11.80;99.90
59128;DHT22;44912;52.754;5.994;2023-09-30T06:34:08;11.80;99.90
59128;DHT22;44912;52.754;5.994;2023-09-30T06:36:36;11.70;99.90
59128;DHT22;44912;52.754;5.994;2023-09-30T06:39:03;11.90;99.90
59128;DHT22;44912;52.754;5.994;2023-09-30T06:41:31;11.90;99.90
59128;DHT22;44912;52.754;5.994;2023-09-30T06:43:56;12.00;99.90
59128;DHT22;44912;52.754;5.994;2023-09-30T06:46:22;11.90;99.90
59128;DHT22;44912;52.754;5.994;2023-09-30T06:48:49;11.90;99.90
59128;DHT22;44912;52.754;5.994;2023-09-30T06:51:17;12.00;99.90
59128;DHT22;44912;52.754;5.994;2023-09-30T06:53:43;12.10;99.90
59128;DHT22;44912;52.754;5.994;2023-09-30T06:56:08;12.20;99.90
59128;DHT22;44912;52.754;5.994;2023-09-30T06:58:34;12.10;99.90
59128;DHT22;44912;52.754;5.994;2023-09-30T07:01:00;12.10;99.90
59128;DHT22;44912;52.754;5.994;2023-09-30T07:03:26;12.20;99.90
59128;DHT22;44912;52.754;5.994;2023-09-30T07:05:52;12.40;99.90
59128;DHT22;44912;52.754;5.994;2023-09-30T07:08:19;12.40;99.90
59128;DHT22;44912;52.754;5.994;2023-09-30T07:10:47;12.60;99.90
59128;DHT22;44912;52.754;5.994;2023-09-30T07:13:16;12.80;99.90
59128;DHT22;44912;52.754;5.994;2023-09-30T07:15:41;12.80;99.90
59128;DHT22;44912;52.754;5.994;2023-09-30T07:18:07;12.80;99.90
59128;DHT22;44912;52.754;5.994;2023-09-30T07:20:33;13.10;99.90
59128;DHT22;44912;52.754;5.994;2023-09-30T07:23:02;13.20;99.90
59128;DHT22;44912;52.754;5.994;2023-09-30T07:25:28;13.10;99.90
59128;DHT22;44912;52.754;5.994;2023-09-30T07:27:57;13.30;99.90
59128;DHT22;44912;52.754;5.994;2023-09-30T07:30:23;13.30;99.90
59128;DHT22;44912;52.754;5.994;2023-09-30T07:32:49;13.60;99.90
59128;DHT22;44912;52.754;5.994;2023-09-30T07:35:16;13.70;99.90
59128;DHT22;44912;52.754;5.994;2023-09-30T07:37:41;13.70;99.90
59128;DHT22;44912;52.754;5.994;2023-09-30T07:40:08;13.70;99.90
59128;DHT22;44912;52.754;5.994;2023-09-30T07:42:33;13.90;99.90
59128;DHT22;44912;52.754;5.994;2023-09-30T07:45:00;13.90;99.90
59128;DHT22;44912;52.754;5.994;2023-09-30T07:47:25;14.00;99.90
59128;DHT22;44912;52.754;5.994;2023-09-30T07:49:51;14.20;99.90
59128;DHT22;44912;52.754;5.994;2023-09-30T07:52:16;14.20;99.90
59128;DHT22;44912;52.754;5.994;2023-09-30T07:54:42;14.30;99.90
59128;DHT22;44912;52.754;5.994;2023-09-30T07:57:08;14.40;99.90
59128;DHT22;44912;52.754;5.994;2023-09-30T07:59:34;14.30;99.90
59128;DHT22;44912;52.754;5.994;2023-09-30T08:02:01;14.60;99.90
59128;DHT22;44912;52.754;5.994;2023-09-30T08:04:30;14.60;99.90
59128;DHT22;44912;52.754;5.994;2023-09-30T08:06:56;14.80;99.90
59128;DHT22;44912;52.754;5.994;2023-09-30T08:09:22;14.70;99.90
59128;DHT22;44912;52.754;5.994;2023-09-30T08:11:53;14.70;99.90
59128;DHT22;44912;52.754;5.994;2023-09-30T08:14:19;15.00;99.90
59128;DHT22;44912;52.754;5.994;2023-09-30T08:16:44;15.00;99.90
59128;DHT22;44912;52.754;5.994;2023-09-30T08:19:10;15.10;99.90
59128;DHT22;44912;52.754;5.994;2023-09-30T08:21:35;15.10;99.90
59128;DHT22;44912;52.754;5.994;2023-09-30T08:24:02;15.20;99.90
59128;DHT22;44912;52.754;5.994;2023-09-30T08:26:27;15.30;99.90
59128;DHT22;44912;52.754;5.994;2023-09-30T08:28:53;15.30;99.90
59128;DHT22;44912;52.754;5.994;2023-09-30T08:31:18;15.40;99.90
59128;DHT22;44912;52.754;5.994;2023-09-30T08:33:45;15.50;99.90
59128;DHT22;44912;52.754;5.994;2023-09-30T08:36:11;15.60;99.90
59128;DHT22;44912;52.754;5.994;2023-09-30T08:38:38;15.70;99.90
59128;DHT22;44912;52.754;5.994;2023-09-30T08:41:05;15.70;99.90
59128;DHT22;44912;52.754;5.994;2023-09-30T08:43:31;15.90;99.90
59128;DHT22;44912;52.754;5.994;2023-09-30T08:45:59;15.90;99.90
59128;DHT22;44912;52.754;5.994;2023-09-30T08:48:29;16.10;99.90
59128;DHT22;44912;52.754;5.994;2023-09-30T08:50:55;16.10;99.90
59128;DHT22;44912;52.754;5.994;2023-09-30T08:53:23;16.10;99.90
59128;DHT22;44912;52.754;5.994;2023-09-30T08:55:52;16.10;99.90
59128;DHT22;44912;52.754;5.994;2023-09-30T08:58:19;16.30;99.90
59128;DHT22;44912;52.754;5.994;2023-09-30T09:00:47;16.50;99.90
59128;DHT22;44912;52.754;5.994;2023-09-30T09:03:13;16.40;99.90
59128;DHT22;44912;52.754;5.994;2023-09-30T09:05:39;16.50;99.90
59128;DHT22;44912;52.754;5.994;2023-09-30T09:08:06;16.50;99.90
59128;DHT22;44912;52.754;5.994;2023-09-30T09:10:31;16.70;99.90
59128;DHT22;44912;52.754;5.994;2023-09-30T09:12:58;16.80;99.90
59128;DHT22;44912;52.754;5.994;2023-09-30T09:15:26;16.80;99.90
59128;DHT22;44912;52.754;5.994;2023-09-30T09:17:52;16.90;99.90
59128;DHT22;44912;52.754;5.994;2023-09-30T09:20:21;16.90;99.90
59128;DHT22;44912;52.754;5.994;2023-09-30T09:22:52;17.10;99.90
59128;DHT22;44912;52.754;5.994;2023-09-30T09:25:23;17.10;99.90
59128;DHT22;44912;52.754;5.994;2023-09-30T09:27:49;17.40;99.90
59128;DHT22;44912;52.754;5.994;2023-09-30T09:30:23;17.40;99.90
59128;DHT22;44912;52.754;5.994;2023-09-30T09:35:23;17.50;99.90
59128;DHT22;44912;52.754;5.994;2023-09-30T09:38:02;17.60;99.90
59128;DHT22;44912;52.754;5.994;2023-09-30T09:40:36;17.60;99.90
59128;DHT22;44912;52.754;5.994;2023-09-30T09:43:03;17.70;99.90
59128;DHT22;44912;52.754;5.994;2023-09-30T09:45:36;17.80;99.90
59128;DHT22;44912;52.754;5.994;2023-09-30T09:48:03;17.80;99.90
59128;DHT22;44912;52.754;5.994;2023-09-30T09:50:30;17.80;99.90
59128;DHT22;44912;52.754;5.994;2023-09-30T09:52:58;17.90;99.90
59128;DHT22;44912;52.754;5.994;2023-09-30T09:55:26;17.90;99.90
59128;DHT22;44912;52.754;5.994;2023-09-30T09:57:53;18.00;99.90
59128;DHT22;44912;52.754;5.994;2023-09-30T10:00:22;18.00;99.90
59128;DHT22;44912;52.754;5.994;2023-09-30T10:02:49;18.10;99.90
59128;DHT22;44912;52.754;5.994;2023-09-30T10:05:16;18.20;99.90
59128;DHT22;44912;52.754;5.994;2023-09-30T10:07:57;18.30;99.90
59128;DHT22;44912;52.754;5.994;2023-09-30T10:10:26;18.30;99.90
59128;DHT22;44912;52.754;5.994;2023-09-30T10:12:51;18.40;99.90
59128;DHT22;44912;52.754;5.994;2023-09-30T10:18:06;18.50;99.90
59128;DHT22;44912;52.754;5.994;2023-09-30T10:20:34;18.60;99.90
59128;DHT22;44912;52.754;5.994;2023-09-30T10:25:46;18.70;99.90
59128;DHT22;44912;52.754;5.994;2023-09-30T10:28:49;18.70;99.90
59128;DHT22;44912;52.754;5.994;2023-09-30T10:31:17;18.70;99.90
59128;DHT22;44912;52.754;5.994;2023-09-30T10:36:39;18.90;99.90
59128;DHT22;44912;52.754;5.994;2023-09-30T10:39:11;19.00;99.90
59128;DHT22;44912;52.754;5.994;2023-09-30T10:46:59;18.60;99.90
59128;DHT22;44912;52.754;5.994;2023-09-30T10:51:51;18.70;99.90
59128;DHT22;44912;52.754;5.994;2023-09-30T10:54:26;18.90;99.90
59128;DHT22;44912;52.754;5.994;2023-09-30T10:56:53;19.00;99.90
59128;DHT22;44912;52.754;5.994;2023-09-30T10:59:20;19.00;99.90
59128;DHT22;44912;52.754;5.994;2023-09-30T11:01:45;19.00;99.90
59128;DHT22;44912;52.754;5.994;2023-09-30T11:04:11;19.00;99.90
59128;DHT22;44912;52.754;5.994;2023-09-30T11:06:40;19.10;99.90
59128;DHT22;44912;52.754;5.994;2023-09-30T11:09:06;19.20;99.90
59128;DHT22;44912;52.754;5.994;2023-09-30T11:11:45;19.30;99.90
59128;DHT22;44912;52.754;5.994;2023-09-30T11:14:25;19.30;99.90
59128;DHT22;44912;52.754;5.994;2023-09-30T11:16:52;19.20;99.90
59128;DHT22;44912;52.754;5.994;2023-09-30T11:19:19;19.10;99.90
59128;DHT22;44912;52.754;5.994;2023-09-30T11:21:51;19.00;99.90
59128;DHT22;44912;52.754;5.994;2023-09-30T11:24:17;19.20;99.90
59128;DHT22;44912;52.754;5.994;2023-09-30T11:26:44;19.30;99.90
59128;DHT22;44912;52.754;5.994;2023-09-30T11:29:11;19.50;99.90
59128;DHT22;44912;52.754;5.994;2023-09-30T11:31:38;19.60;99.90
59128;DHT22;44912;52.754;5.994;2023-09-30T11:34:04;19.60;99.90
59128;DHT22;44912;52.754;5.994;2023-09-30T11:36:33;19.70;99.90
59128;DHT22;44912;52.754;5.994;2023-09-30T11:38:59;19.70;99.90
59128;DHT22;44912;52.754;5.994;2023-09-30T11:41:38;19.80;99.90
59128;DHT22;44912;52.754;5.994;2023-09-30T11:44:09;19.70;99.90
59128;DHT22;44912;52.754;5.994;2023-09-30T11:46:56;19.60;99.90
59128;DHT22;44912;52.754;5.994;2023-09-30T11:49:34;19.60;99.90
59128;DHT22;44912;52.754;5.994;2023-09-30T11:52:10;19.60;99.90
59128;DHT22;44912;52.754;5.994;2023-09-30T11:54:43;19.60;99.90
59128;DHT22;44912;52.754;5.994;2023-09-30T11:57:16;19.60;99.90
59128;DHT22;44912;52.754;5.994;2023-09-30T11:59:47;19.60;99.90
59128;DHT22;44912;52.754;5.994;2023-09-30T12:02:17;19.70;99.90
59128;DHT22;44912;52.754;5.994;2023-09-30T12:04:43;19.80;99.90
59128;DHT22;44912;52.754;5.994;2023-09-30T12:07:10;19.90;99.90
59128;DHT22;44912;52.754;5.994;2023-09-30T12:09:36;19.90;99.90
59128;DHT22;44912;52.754;5.994;2023-09-30T12:12:03;19.90;99.90
59128;DHT22;44912;52.754;5.994;2023-09-30T12:14:29;19.90;99.90
59128;DHT22;44912;52.754;5.994;2023-09-30T12:16:56;19.90;99.90
59128;DHT22;44912;52.754;5.994;2023-09-30T12:19:22;19.90;99.90
59128;DHT22;44912;52.754;5.994;2023-09-30T12:21:48;19.90;99.90
59128;DHT22;44912;52.754;5.994;2023-09-30T12:24:15;20.00;99.90
59128;DHT22;44912;52.754;5.994;2023-09-30T12:26:46;20.00;99.90
59128;DHT22;44912;52.754;5.994;2023-09-30T12:29:21;20.10;99.90
59128;DHT22;44912;52.754;5.994;2023-09-30T12:31:48;20.10;99.90
59128;DHT22;44912;52.754;5.994;2023-09-30T12:34:13;20.10;99.90
59128;DHT22;44912;52.754;5.994;2023-09-30T12:36:40;20.00;99.90
59128;DHT22;44912;52.754;5.994;2023-09-30T12:39:06;20.10;99.90
59128;DHT22;44912;52.754;5.994;2023-09-30T12:41:40;20.20;99.90
59128;DHT22;44912;52.754;5.994;2023-09-30T12:44:09;20.30;99.90
59128;DHT22;44912;52.754;5.994;2023-09-30T12:46:35;20.30;99.90
59128;DHT22;44912;52.754;5.994;2023-09-30T12:49:06;20.20;99.90
59128;DHT22;44912;52.754;5.994;2023-09-30T12:51:32;20.20;99.90
59128;DHT22;44912;52.754;5.994;2023-09-30T12:53:59;20.20;99.90
59128;DHT22;44912;52.754;5.994;2023-09-30T12:56:24;20.20;99.90
59128;DHT22;44912;52.754;5.994;2023-09-30T12:58:50;20.10;99.90
59128;DHT22;44912;52.754;5.994;2023-09-30T13:01:16;20.10;99.90
59128;DHT22;44912;52.754;5.994;2023-09-30T13:03:44;20.00;99.90
59128;DHT22;44912;52.754;5.994;2023-09-30T13:06:09;20.00;99.90
59128;DHT22;44912;52.754;5.994;2023-09-30T13:08:35;19.90;99.90
59128;DHT22;44912;52.754;5.994;2023-09-30T13:11:02;19.80;99.90
59128;DHT22;44912;52.754;5.994;2023-09-30T13:13:29;19.80;99.90
59128;DHT22;44912;52.754;5.994;2023-09-30T13:15:56;19.80;99.90
59128;DHT22;44912;52.754;5.994;2023-09-30T13:18:22;19.80;99.90
59128;DHT22;44912;52.754;5.994;2023-09-30T13:20:48;19.80;99.90
59128;DHT22;44912;52.754;5.994;2023-09-30T13:23:14;19.80;99.90
59128;DHT22;44912;52.754;5.994;2023-09-30T13:25:39;19.90;99.90
59128;DHT22;44912;52.754;5.994;2023-09-30T13:28:05;20.00;99.90
59128;DHT22;44912;52.754;5.994;2023-09-30T13:30:30;20.00;99.90
59128;DHT22;44912;52.754;5.994;2023-09-30T13:32:56;20.10;99.90
59128;DHT22;44912;52.754;5.994;2023-09-30T13:35:21;20.00;99.90
59128;DHT22;44912;52.754;5.994;2023-09-30T13:37:47;19.80;99.90
59128;DHT22;44912;52.754;5.994;2023-09-30T13:40:13;19.60;99.90
59128;DHT22;44912;52.754;5.994;2023-09-30T13:42:39;19.50;99.90
59128;DHT22;44912;52.754;5.994;2023-09-30T13:45:05;19.50;99.90
59128;DHT22;44912;52.754;5.994;2023-09-30T13:47:32;19.50;99.90
59128;DHT22;44912;52.754;5.994;2023-09-30T13:49:58;19.60;99.90
59128;DHT22;44912;52.754;5.994;2023-09-30T13:52:23;19.80;99.90
59128;DHT22;44912;52.754;5.994;2023-09-30T13:54:49;19.90;99.90
59128;DHT22;44912;52.754;5.994;2023-09-30T13:57:15;19.90;99.90
59128;DHT22;44912;52.754;5.994;2023-09-30T13:59:40;19.80;99.90
59128;DHT22;44912;52.754;5.994;2023-09-30T14:02:07;19.70;99.90
59128;DHT22;44912;52.754;5.994;2023-09-30T14:04:33;19.60;99.90
59128;DHT22;44912;52.754;5.994;2023-09-30T14:07:01;19.50;99.90
59128;DHT22;44912;52.754;5.994;2023-09-30T14:09:27;19.40;99.90
59128;DHT22;44912;52.754;5.994;2023-09-30T14:11:53;19.40;99.90
59128;DHT22;44912;52.754;5.994;2023-09-30T14:14:19;19.30;99.90
59128;DHT22;44912;52.754;5.994;2023-09-30T14:16:44;19.40;99.90
59128;DHT22;44912;52.754;5.994;2023-09-30T14:19:10;19.40;99.90
59128;DHT22;44912;52.754;5.994;2023-09-30T14:21:36;19.30;99.90
59128;DHT22;44912;52.754;5.994;2023-09-30T14:24:01;19.30;99.90
59128;DHT22;44912;52.754;5.994;2023-09-30T14:26:27;19.20;99.90
59128;DHT22;44912;52.754;5.994;2023-09-30T14:28:54;19.20;99.90
59128;DHT22;44912;52.754;5.994;2023-09-30T14:31:20;19.10;99.90
59128;DHT22;44912;52.754;5.994;2023-09-30T14:33:45;19.00;99.90
59128;DHT22;44912;52.754;5.994;2023-09-30T14:36:11;19.00;99.90
59128;DHT22;44912;52.754;5.994;2023-09-30T14:38:36;18.90;99.90
59128;DHT22;44912;52.754;5.994;2023-09-30T14:41:07;18.90;99.90
59128;DHT22;44912;52.754;5.994;2023-09-30T14:43:33;18.80;99.90
59128;DHT22;44912;52.754;5.994;2023-09-30T14:46:01;18.80;99.90
59128;DHT22;44912;52.754;5.994;2023-09-30T14:48:27;18.70;99.90
59128;DHT22;44912;52.754;5.994;2023-09-30T14:50:52;18.70;99.90
59128;DHT22;44912;52.754;5.994;2023-09-30T14:53:18;18.80;99.90
59128;DHT22;44912;52.754;5.994;2023-09-30T14:55:45;18.90;99.90
59128;DHT22;44912;52.754;5.994;2023-09-30T14:58:10;19.10;99.90
59128;DHT22;44912;52.754;5.994;2023-09-30T15:00:36;19.20;99.90
59128;DHT22;44912;52.754;5.994;2023-09-30T15:03:01;19.30;99.90
59128;DHT22;44912;52.754;5.994;2023-09-30T15:05:27;19.30;99.90
59128;DHT22;44912;52.754;5.994;2023-09-30T15:07:52;19.30;99.90
59128;DHT22;44912;52.754;5.994;2023-09-30T15:10:18;19.20;99.90
59128;DHT22;44912;52.754;5.994;2023-09-30T15:12:44;19.20;99.90
59128;DHT22;44912;52.754;5.994;2023-09-30T15:15:10;19.10;99.90
59128;DHT22;44912;52.754;5.994;2023-09-30T15:17:35;19.10;99.90
59128;DHT22;44912;52.754;5.994;2023-09-30T15:20:01;18.90;99.90
59128;DHT22;44912;52.754;5.994;2023-09-30T15:22:27;18.90;99.90
59128;DHT22;44912;52.754;5.994;2023-09-30T15:24:52;18.80;99.90
59128;DHT22;44912;52.754;5.994;2023-09-30T15:27:18;18.70;99.90
59128;DHT22;44912;52.754;5.994;2023-09-30T15:29:47;18.70;99.90
59128;DHT22;44912;52.754;5.994;2023-09-30T15:32:13;18.60;99.90
59128;DHT22;44912;52.754;5.994;2023-09-30T15:34:39;18.50;99.90
59128;DHT22;44912;52.754;5.994;2023-09-30T15:37:06;18.50;99.90
59128;DHT22;44912;52.754;5.994;2023-09-30T15:39:38;18.50;99.90
59128;DHT22;44912;52.754;5.994;2023-09-30T15:42:04;18.40;99.90
59128;DHT22;44912;52.754;5.994;2023-09-30T15:44:29;18.40;99.90
59128;DHT22;44912;52.754;5.994;2023-09-30T15:46:55;18.30;99.90